Time;durP1;ratioP1;P1;durP2;ratioP2;P2;SDS_P1;SDS_P2;PMS_P1;PMS_P2;Temp;Humidity;BMP_temperature;BMP_pressure;BME280_temperature;BME280_humidity;BME280_pressure;Samples;Min_cycle;Max_cycle;Signal;HPM_P1;HPM_P2
2023/07/03 00:00:59;;;;;;;7.6;5.2;;;;;;;;;;;;;
2023/07/03 00:03:25;;;;;;;6.8;5.7;;;;;;;;;;;;;
2023/07/03 00:05:50;;;;;;;8.9;5.4;;;;;;;;;;;;;
2023/07/03 00:08:17;;;;;;;9.4;5.4;;;;;;;;;;;;;
2023/07/03 00:10:42;;;;;;;7.5;5.4;;;;;;;;;;;;;
2023/07/03 00:13:07;;;;;;;8.1;5.2;;;;;;;;;;;;;
2023/07/03 00:15:39;;;;;;;8.1;5.7;;;;;;;;;;;;;
2023/07/03 00:18:04;;;;;;;6.6;5.2;;;;;;;;;;;;;
2023/07/03 00:20:29;;;;;;;8.8;5.3;;;;;;;;;;;;;
2023/07/03 00:22:56;;;;;;;8.1;5.4;;;;;;;;;;;;;
2023/07/03 00:25:21;;;;;;;6.3;5.2;;;;;;;;;;;;;
2023/07/03 00:27:48;;;;;;;8.1;5.2;;;;;;;;;;;;;
2023/07/03 00:30:13;;;;;;;6.9;5.3;;;;;;;;;;;;;
2023/07/03 00:32:40;;;;;;;7;5.7;;;;;;;;;;;;;
2023/07/03 00:35:06;;;;;;;6.1;5.5;;;;;;;;;;;;;
2023/07/03 00:37:37;;;;;;;11.1;6;;;;;;;;;;;;;
2023/07/03 00:40:03;;;;;;;6.8;5.2;;;;;;;;;;;;;
2023/07/03 00:42:28;;;;;;;6.5;5.5;;;;;;;;;;;;;
2023/07/03 00:44:54;;;;;;;6.3;5.5;;;;;;;;;;;;;
2023/07/03 00:47:19;;;;;;;6.6;5.2;;;;;;;;;;;;;
2023/07/03 00:49:46;;;;;;;8.6;5.6;;;;;;;;;;;;;
2023/07/03 00:52:11;;;;;;;7.1;5.3;;;;;;;;;;;;;
2023/07/03 00:54:37;;;;;;;8.3;5.5;;;;;;;;;;;;;
2023/07/03 00:57:02;;;;;;;6.9;5.2;;;;;;;;;;;;;
2023/07/03 00:59:29;;;;;;;6.3;5.1;;;;;;;;;;;;;
2023/07/03 01:01:54;;;;;;;8.1;5.7;;;;;;;;;;;;;
2023/07/03 01:04:19;;;;;;;8;5.3;;;;;;;;;;;;;
2023/07/03 01:06:44;;;;;;;6.4;5.5;;;;;;;;;;;;;
2023/07/03 01:09:09;;;;;;;7.7;5.5;;;;;;;;;;;;;
2023/07/03 01:11:34;;;;;;;7.9;5.6;;;;;;;;;;;;;
2023/07/03 01:14:01;;;;;;;8.8;5.7;;;;;;;;;;;;;
2023/07/03 01:16:26;;;;;;;7.9;5.5;;;;;;;;;;;;;
2023/07/03 01:18:52;;;;;;;6.7;5.5;;;;;;;;;;;;;
2023/07/03 01:21:17;;;;;;;7.5;5.8;;;;;;;;;;;;;
2023/07/03 01:23:43;;;;;;;7;5.3;;;;;;;;;;;;;
2023/07/03 01:26:09;;;;;;;7.2;5.6;;;;;;;;;;;;;
2023/07/03 01:28:34;;;;;;;8.2;5.4;;;;;;;;;;;;;
2023/07/03 01:30:59;;;;;;;6.8;5.5;;;;;;;;;;;;;
2023/07/03 01:33:25;;;;;;;6.8;4.9;;;;;;;;;;;;;
2023/07/03 01:35:50;;;;;;;7.5;5.6;;;;;;;;;;;;;
2023/07/03 01:38:16;;;;;;;7.9;5.6;;;;;;;;;;;;;
2023/07/03 01:40:41;;;;;;;8.1;5.6;;;;;;;;;;;;;
2023/07/03 01:43:07;;;;;;;7.4;5.3;;;;;;;;;;;;;
2023/07/03 01:45:32;;;;;;;7.4;5.8;;;;;;;;;;;;;
2023/07/03 01:47:57;;;;;;;7.3;5.6;;;;;;;;;;;;;
2023/07/03 01:50:23;;;;;;;8.3;5.6;;;;;;;;;;;;;
2023/07/03 01:52:51;;;;;;;7.5;5.6;;;;;;;;;;;;;
2023/07/03 01:55:14;;;;;;;9.8;5.5;;;;;;;;;;;;;
2023/07/03 01:57:43;;;;;;;9.6;5.8;;;;;;;;;;;;;
2023/07/03 02:00:12;;;;;;;7.6;6;;;;;;;;;;;;;
2023/07/03 02:02:36;;;;;;;7.3;5.5;;;;;;;;;;;;;
2023/07/03 02:05:01;;;;;;;7.2;5.7;;;;;;;;;;;;;
2023/07/03 02:07:25;;;;;;;6.8;5.3;;;;;;;;;;;;;
2023/07/03 02:09:52;;;;;;;6.8;5.3;;;;;;;;;;;;;
2023/07/03 02:12:17;;;;;;;9.3;6;;;;;;;;;;;;;
2023/07/03 02:14:43;;;;;;;7.4;5.3;;;;;;;;;;;;;
2023/07/03 02:17:23;;;;;;;7.3;5.4;;;;;;;;;;;;;
2023/07/03 02:19:33;;;;;;;9;5.9;;;;;;;;;;;;;
2023/07/03 02:22:00;;;;;;;6.9;5.1;;;;;;;;;;;;;
2023/07/03 02:24:25;;;;;;;7.6;5.7;;;;;;;;;;;;;
2023/07/03 02:26:51;;;;;;;7.3;5.8;;;;;;;;;;;;;
2023/07/03 02:29:16;;;;;;;9.2;5.7;;;;;;;;;;;;;
2023/07/03 02:31:43;;;;;;;8.7;6;;;;;;;;;;;;;
2023/07/03 02:34:08;;;;;;;6.3;5.4;;;;;;;;;;;;;
2023/07/03 02:36:35;;;;;;;6.9;5.5;;;;;;;;;;;;;
2023/07/03 02:39:01;;;;;;;8.8;5.8;;;;;;;;;;;;;
2023/07/03 02:41:26;;;;;;;8.3;5.8;;;;;;;;;;;;;
2023/07/03 02:43:52;;;;;;;8.2;5.8;;;;;;;;;;;;;
2023/07/03 02:46:19;;;;;;;8.1;5.8;;;;;;;;;;;;;
2023/07/03 02:48:45;;;;;;;7.2;5.9;;;;;;;;;;;;;
2023/07/03 02:51:11;;;;;;;8.6;6;;;;;;;;;;;;;
2023/07/03 02:53:36;;;;;;;7.7;6;;;;;;;;;;;;;
2023/07/03 02:56:01;;;;;;;7.7;6;;;;;;;;;;;;;
2023/07/03 02:58:26;;;;;;;7.7;5.6;;;;;;;;;;;;;
2023/07/03 03:00:53;;;;;;;8;6.1;;;;;;;;;;;;;
2023/07/03 03:03:18;;;;;;;9.5;5.9;;;;;;;;;;;;;
2023/07/03 03:05:43;;;;;;;7.7;6.3;;;;;;;;;;;;;
2023/07/03 03:08:11;;;;;;;6.5;5.3;;;;;;;;;;;;;
2023/07/03 03:10:37;;;;;;;7.7;5.8;;;;;;;;;;;;;
2023/07/03 03:13:02;;;;;;;8;5.8;;;;;;;;;;;;;
2023/07/03 03:15:28;;;;;;;8.8;6.2;;;;;;;;;;;;;
2023/07/03 03:17:53;;;;;;;8.4;6.2;;;;;;;;;;;;;
2023/07/03 03:20:19;;;;;;;7.6;5.5;;;;;;;;;;;;;
2023/07/03 03:22:44;;;;;;;8.1;6;;;;;;;;;;;;;
2023/07/03 03:25:14;;;;;;;7.5;5.8;;;;;;;;;;;;;
2023/07/03 03:27:41;;;;;;;6.3;5.6;;;;;;;;;;;;;
2023/07/03 03:30:06;;;;;;;9.9;6.4;;;;;;;;;;;;;
2023/07/03 03:32:31;;;;;;;7.8;5.8;;;;;;;;;;;;;
2023/07/03 03:34:57;;;;;;;8.3;6.1;;;;;;;;;;;;;
2023/07/03 03:37:22;;;;;;;11.1;5.8;;;;;;;;;;;;;
2023/07/03 03:39:49;;;;;;;9.2;6.1;;;;;;;;;;;;;
2023/07/03 03:42:14;;;;;;;10.5;6.5;;;;;;;;;;;;;
2023/07/03 03:44:40;;;;;;;8;6.2;;;;;;;;;;;;;
2023/07/03 03:47:05;;;;;;;8.6;6.1;;;;;;;;;;;;;
2023/07/03 03:49:31;;;;;;;9.1;6.3;;;;;;;;;;;;;
2023/07/03 03:51:56;;;;;;;9.4;6.6;;;;;;;;;;;;;
2023/07/03 03:57:12;;;;;;;9.1;6.1;;;;;;;;;;;;;
2023/07/03 03:59:36;;;;;;;7.4;5.7;;;;;;;;;;;;;
2023/07/03 04:02:35;;;;;;;8.9;6.5;;;;;;;17.43;91.95117;936.2047;;;;
2023/07/03 04:05:00;;;;;;;8.3;6.3;;;;;;;17.4;92.84961;936.2364;;;;
2023/07/03 04:07:28;;;;;;;7.6;6.2;;;;;;;17.35;93.42969;936.2366;;;;
2023/07/03 04:09:58;;;;;;;8.9;6.7;;;;;;;17.29;93.51172;936.2144;;;;
2023/07/03 04:12:23;;;;;;;9.6;6.7;;;;;;;17.38;92.70703;936.1957;;;;
2023/07/03 04:14:55;;;;;;;9.5;6.5;;;;;;;17.46;91.80566;936.1696;;;;
2023/07/03 04:17:23;;;;;;;8;6.2;;;;;;;17.53;91.87695;936.2156;;;;
2023/07/03 04:19:52;;;;;;;8.8;6.2;;;;;;;17.55;91.53418;936.2126;;;;
2023/07/03 04:22:21;;;;;;;8.4;6.1;;;;;;;17.55;90.55957;936.2256;;;;
2023/07/03 04:24:46;;;;;;;8;6.6;;;;;;;17.57;90.34277;936.2211;;;;
2023/07/03 04:27:14;;;;;;;10.7;6.6;;;;;;;17.61;90.08594;936.3257;;;;
2023/07/03 04:29:46;;;;;;;11.1;6.9;;;;;;;17.54;92.3916;936.2878;;;;
2023/07/03 04:32:17;;;;;;;24.3;7.4;;;;;;;17.39;93.24023;936.3307;;;;
2023/07/03 04:34:43;;;;;;;12.8;7;;;;;;;17.48;92.4375;936.3485;;;;
2023/07/03 04:37:13;;;;;;;10.9;7;;;;;;;17.4;91.74609;936.3331;;;;
2023/07/03 04:39:44;;;;;;;11.1;7.1;;;;;;;17.6;91.06836;936.3141;;;;
2023/07/03 04:42:13;;;;;;;10.6;6.9;;;;;;;17.69;90.04395;936.2419;;;;
2023/07/03 04:44:38;;;;;;;10.4;7.1;;;;;;;17.71;89.33984;936.2801;;;;
2023/07/03 04:47:07;;;;;;;8.8;6.6;;;;;;;17.58;89.45313;936.2595;;;;
2023/07/03 04:49:32;;;;;;;9.8;6.7;;;;;;;17.59;89.13086;936.2794;;;;
2023/07/03 04:52:04;;;;;;;8.6;6.3;;;;;;;17.63;88.9873;936.2629;;;;
2023/07/03 04:54:32;;;;;;;10.7;6.3;;;;;;;17.81;87.94336;936.2675;;;;
2023/07/03 04:56:57;;;;;;;8.9;6.2;;;;;;;17.81;87.24707;936.2988;;;;
2023/07/03 04:59:27;;;;;;;8.2;5.9;;;;;;;17.74;87.69727;936.2528;;;;
2023/07/03 05:01:58;;;;;;;9.5;6.3;;;;;;;17.75;87.93066;936.259;;;;
2023/07/03 05:04:24;;;;;;;9.8;6.7;;;;;;;17.73;87.91797;936.2908;;;;
2023/07/03 05:06:51;;;;;;;9.9;6.2;;;;;;;17.84;87.66113;936.3;;;;
2023/07/03 05:09:17;;;;;;;9.8;6.2;;;;;;;17.94;86.99512;936.3059;;;;
2023/07/03 05:11:48;;;;;;;10;6.5;;;;;;;17.96;86.83594;936.3345;;;;
2023/07/03 05:14:11;;;;;;;8.3;6.1;;;;;;;18.08;86.70801;936.2942;;;;
2023/07/03 05:16:36;;;;;;;10.1;6.2;;;;;;;18.21;85.35254;936.2928;;;;
2023/07/03 05:19:08;;;;;;;8.7;6.2;;;;;;;18.3;84.12402;936.2434;;;;
2023/07/03 05:21:33;;;;;;;10.7;7;;;;;;;18.28;85.16504;936.2143;;;;
2023/07/03 05:24:07;;;;;;;9.7;6.4;;;;;;;18.54;84.7627;936.3002;;;;
2023/07/03 05:26:35;;;;;;;8.9;6.2;;;;;;;18.72;83.42578;936.3245;;;;
2023/07/03 05:29:00;;;;;;;8.9;6.4;;;;;;;19.12;81.3125;936.3406;;;;
2023/07/03 05:31:25;;;;;;;10.9;6.3;;;;;;;19.52;78.29688;936.2916;;;;
2023/07/03 05:33:56;;;;;;;8.6;6.3;;;;;;;19.7;78.83008;936.2839;;;;
2023/07/03 05:36:30;;;;;;;10.1;6.4;;;;;;;19.93;77.63574;936.2547;;;;
2023/07/03 05:38:53;;;;;;;9.2;6.1;;;;;;;20.33;77.49512;936.2512;;;;
2023/07/03 05:41:24;;;;;;;8.3;5.5;;;;;;;21;72.1748;936.2548;;;;
2023/07/03 05:43:49;;;;;;;9.4;6.2;;;;;;;20.89;71.62109;936.3239;;;;
2023/07/03 05:46:16;;;;;;;8.8;6.4;;;;;;;21.04;72.66113;936.3524;;;;
2023/07/03 05:48:41;;;;;;;8.6;6.1;;;;;;;21;72.24512;936.3381;;;;
2023/07/03 05:51:10;;;;;;;8;5.9;;;;;;;21.23;71.19531;936.4142;;;;
2023/07/03 05:53:35;;;;;;;8.1;6;;;;;;;21.04;71.21094;936.4543;;;;
2023/07/03 05:56:03;;;;;;;9.4;6.9;;;;;;;20.79;72.65625;936.4264;;;;
2023/07/03 05:58:27;;;;;;;7.2;5.8;;;;;;;20.63;74.75684;936.4615;;;;
2023/07/03 06:01:03;;;;;;;9.2;6.5;;;;;;;20.49;73.29492;936.427;;;;
2023/07/03 06:03:28;;;;;;;8.7;6.4;;;;;;;20.44;74.5127;936.4335;;;;
2023/07/03 06:05:52;;;;;;;9.2;6.9;;;;;;;20.52;73.83691;936.4958;;;;
2023/07/03 06:08:19;;;;;;;11.6;6.8;;;;;;;20.46;73.52246;936.4636;;;;
2023/07/03 06:10:52;;;;;;;9.4;6.5;;;;;;;20.57;72.15039;936.4578;;;;
2023/07/03 06:13:19;;;;;;;10.7;6.7;;;;;;;20.54;71.02441;936.433;;;;
2023/07/03 06:15:49;;;;;;;9.1;6.5;;;;;;;20.59;70.82324;936.4434;;;;
2023/07/03 06:18:17;;;;;;;8.4;6;;;;;;;20.46;75.5332;936.4255;;;;
2023/07/03 06:20:43;;;;;;;8.6;6.2;;;;;;;20.35;76.48242;936.4261;;;;
2023/07/03 06:23:13;;;;;;;9.1;5.9;;;;;;;20.24;76.49902;936.4908;;;;
2023/07/03 06:25:40;;;;;;;9.5;6.6;;;;;;;20.25;75.61328;936.5204;;;;
2023/07/03 06:28:03;;;;;;;8.9;6.7;;;;;;;20.35;74.15918;936.5377;;;;
2023/07/03 06:30:30;;;;;;;10.7;6.8;;;;;;;20.36;73.82129;936.5286;;;;
2023/07/03 06:32:56;;;;;;;9.3;6.6;;;;;;;20.36;74.0332;936.5695;;;;
2023/07/03 06:35:31;;;;;;;13;7.2;;;;;;;20.31;73.11328;936.5954;;;;
2023/07/03 06:38:03;;;;;;;11.1;6.3;;;;;;;20.3;73.98633;936.5587;;;;
2023/07/03 06:40:29;;;;;;;10.2;6.5;;;;;;;20.19;74.9834;936.599;;;;
2023/07/03 06:43:00;;;;;;;9.4;6.3;;;;;;;20;76.64453;936.626;;;;
2023/07/03 06:45:30;;;;;;;11.1;6.6;;;;;;;19.91;78.15527;936.6473;;;;
2023/07/03 06:47:58;;;;;;;11.7;6.5;;;;;;;19.69;79.80664;936.6187;;;;
2023/07/03 06:50:27;;;;;;;10.3;6.7;;;;;;;19.71;82.35449;936.6639;;;;
2023/07/03 06:52:52;;;;;;;10.6;7.3;;;;;;;19.68;81.97461;936.7126;;;;
2023/07/03 06:55:25;;;;;;;9.3;7.5;;;;;;;19.74;81.11035;936.7061;;;;
2023/07/03 06:57:50;;;;;;;11.4;7;;;;;;;19.74;81.50879;936.7028;;;;
2023/07/03 07:00:18;;;;;;;11.7;7.5;;;;;;;19.68;79.86426;936.7869;;;;
2023/07/03 07:02:50;;;;;;;11;7.2;;;;;;;19.62;81.23047;936.7495;;;;
2023/07/03 07:05:25;;;;;;;12.3;7;;;;;;;19.63;79.35352;936.7278;;;;
2023/07/03 07:07:50;;;;;;;11.5;7.1;;;;;;;19.55;79.27051;936.7256;;;;
2023/07/03 07:10:24;;;;;;;11.9;7.1;;;;;;;19.6;79.12695;936.7009;;;;
2023/07/03 07:12:51;;;;;;;10.7;6.6;;;;;;;19.61;79.29199;936.6625;;;;
2023/07/03 07:15:17;;;;;;;11.2;7.3;;;;;;;19.67;77.61328;936.632;;;;
2023/07/03 07:17:47;;;;;;;10;6.9;;;;;;;19.72;79.38184;936.6145;;;;
2023/07/03 07:20:19;;;;;;;10.6;7.1;;;;;;;19.79;76.07031;936.5687;;;;
2023/07/03 07:22:47;;;;;;;12;6.8;;;;;;;19.94;74.8125;936.5989;;;;
2023/07/03 07:25:12;;;;;;;12.3;7.7;;;;;;;20.06;72.06836;936.6222;;;;
2023/07/03 07:27:42;;;;;;;10.6;7.4;;;;;;;19.99;71.24023;936.5334;;;;
2023/07/03 07:30:18;;;;;;;12.8;7.6;;;;;;;20.02;70.56738;936.5868;;;;
2023/07/03 07:32:49;;;;;;;14.9;7.6;;;;;;;20.13;69.75586;936.562;;;;
2023/07/03 07:35:15;;;;;;;10.5;7.5;;;;;;;20.25;69.10938;936.5708;;;;
2023/07/03 07:37:50;;;;;;;13.4;7.4;;;;;;;20.2;67.34082;936.5605;;;;
2023/07/03 07:40:16;;;;;;;11.8;7.2;;;;;;;20.3;66.62012;936.6128;;;;
2023/07/03 07:42:46;;;;;;;12.9;7.7;;;;;;;20.38;68.78125;936.6005;;;;
2023/07/03 07:45:11;;;;;;;11.5;7.2;;;;;;;20.42;68.13184;936.632;;;;
2023/07/03 07:47:41;;;;;;;13.1;7.5;;;;;;;20.36;67.85449;936.6862;;;;
2023/07/03 07:50:14;;;;;;;13.4;6.8;;;;;;;20.38;66.88867;936.6136;;;;
2023/07/03 07:52:42;;;;;;;11.3;7.4;;;;;;;20.32;70.23145;936.6461;;;;
2023/07/03 07:55:07;;;;;;;13.1;6.9;;;;;;;20.37;68.50977;936.5298;;;;
2023/07/03 07:57:39;;;;;;;11.8;7.2;;;;;;;20.35;69.1377;936.5936;;;;
2023/07/03 08:00:09;;;;;;;10.7;7.6;;;;;;;20.5;69.73438;936.5472;;;;
2023/07/03 08:02:33;;;;;;;12.9;7;;;;;;;20.67;68.49902;936.5974;;;;
2023/07/03 08:05:02;;;;;;;13;7.3;;;;;;;20.85;64.27051;936.5583;;;;
2023/07/03 08:07:34;;;;;;;13.4;6.7;;;;;;;20.81;66.26367;936.5613;;;;
2023/07/03 08:09:59;;;;;;;11;7.2;;;;;;;20.75;65.98633;936.5502;;;;
2023/07/03 08:12:24;;;;;;;10.6;7;;;;;;;20.94;65.8623;936.5588;;;;
2023/07/03 08:14:54;;;;;;;13.5;7;;;;;;;21.19;62.84668;936.5992;;;;
2023/07/03 08:17:19;;;;;;;11.3;7;;;;;;;21.02;63.14941;936.5991;;;;
2023/07/03 08:19:49;;;;;;;12.6;6.7;;;;;;;21.21;64.21875;936.6065;;;;
2023/07/03 08:22:14;;;;;;;11.5;6.6;;;;;;;21.32;62.30371;936.6002;;;;
2023/07/03 08:24:41;;;;;;;10.6;6.4;;;;;;;21.36;62.41406;936.6351;;;;
2023/07/03 08:27:06;;;;;;;11.4;6.9;;;;;;;21.31;62.76953;936.6442;;;;
2023/07/03 08:29:32;;;;;;;11.4;6.3;;;;;;;21.51;62.33008;936.653;;;;
2023/07/03 08:31:57;;;;;;;12.6;6.9;;;;;;;21.45;62.22754;936.7043;;;;
2023/07/03 08:34:27;;;;;;;12.1;7.1;;;;;;;21.35;62.42383;936.6625;;;;
2023/07/03 08:36:53;;;;;;;10;6.8;;;;;;;20.99;60.32617;936.6495;;;;
2023/07/03 08:39:20;;;;;;;10.7;6.6;;;;;;;20.76;63.91992;936.6484;;;;
2023/07/03 08:41:46;;;;;;;12;6.7;;;;;;;20.86;62.69336;936.6602;;;;
2023/07/03 08:44:13;;;;;;;13.1;6.1;;;;;;;20.98;63.12109;936.6409;;;;
2023/07/03 08:46:42;;;;;;;12.7;6.3;;;;;;;21.12;62.5332;936.6355;;;;
2023/07/03 08:49:08;;;;;;;11.1;6;;;;;;;21.14;61.36523;936.6877;;;;
2023/07/03 08:51:39;;;;;;;10;6.1;;;;;;;21.19;60.78711;936.6317;;;;
2023/07/03 08:54:09;;;;;;;11.2;6.2;;;;;;;21.46;59.5957;936.6937;;;;
2023/07/03 08:56:38;;;;;;;11.5;6.1;;;;;;;21.46;62.32324;936.6663;;;;
2023/07/03 08:59:04;;;;;;;8.4;5.9;;;;;;;21.56;60.7207;936.6602;;;;
2023/07/03 09:01:33;;;;;;;11.1;6.3;;;;;;;21.61;61.11328;936.6795;;;;
2023/07/03 09:03:59;;;;;;;13.2;6.2;;;;;;;21.52;59.41504;936.6511;;;;
2023/07/03 09:06:24;;;;;;;10.6;6.3;;;;;;;21.3;63.01465;936.6527;;;;
2023/07/03 09:08:49;;;;;;;12.5;6.8;;;;;;;21.4;60.87402;936.6777;;;;
2023/07/03 09:11:14;;;;;;;11.8;6.5;;;;;;;21.26;61.59277;936.6703;;;;
2023/07/03 09:13:39;;;;;;;12;6.4;;;;;;;21.39;62.06836;936.7119;;;;
2023/07/03 09:16:04;;;;;;;11.1;6.4;;;;;;;21.47;61.03516;936.7226;;;;
2023/07/03 09:18:32;;;;;;;11.9;6.3;;;;;;;21.57;58.86035;936.7723;;;;
2023/07/03 09:20:57;;;;;;;12.2;6.6;;;;;;;21.42;58.88672;936.7174;;;;
2023/07/03 09:23:23;;;;;;;12.4;6.4;;;;;;;21.34;64.00195;936.7908;;;;
2023/07/03 09:25:50;;;;;;;10.7;6;;;;;;;21.6;60.05859;936.7779;;;;
2023/07/03 09:28:15;;;;;;;10.5;6.1;;;;;;;21.84;60.81836;936.7771;;;;
2023/07/03 09:30:48;;;;;;;12;6.4;;;;;;;21.71;58.31738;936.7921;;;;
2023/07/03 09:33:12;;;;;;;12.1;6.9;;;;;;;21.28;59.86328;936.788;;;;
2023/07/03 09:35:47;;;;;;;11;6.3;;;;;;;21.07;63.32227;936.782;;;;
2023/07/03 09:38:10;;;;;;;10.3;6.4;;;;;;;21.38;59.38574;936.7797;;;;
2023/07/03 09:40:39;;;;;;;12.3;6.6;;;;;;;21.16;63.2627;936.7534;;;;
2023/07/03 09:43:12;;;;;;;11.4;6.6;;;;;;;21.15;62.84082;936.7883;;;;
2023/07/03 09:45:42;;;;;;;13.8;6.5;;;;;;;21.09;62.55273;936.8267;;;;
2023/07/03 09:48:07;;;;;;;10.5;6.2;;;;;;;21.34;61.74316;936.7729;;;;
2023/07/03 09:50:43;;;;;;;9.9;6.5;;;;;;;21.22;62.04297;936.8275;;;;
2023/07/03 09:53:08;;;;;;;12.5;6.5;;;;;;;21.18;64.30762;936.8052;;;;
2023/07/03 09:55:33;;;;;;;9.9;6.5;;;;;;;21.7;62.47461;936.823;;;;
2023/07/03 09:57:58;;;;;;;11.9;6.3;;;;;;;22.04;60.6709;936.813;;;;
2023/07/03 10:00:25;;;;;;;9.1;6.7;;;;;;;22.09;56.31543;936.8042;;;;
2023/07/03 10:03:00;;;;;;;9.2;6.1;;;;;;;21.97;61.01074;936.7433;;;;
2023/07/03 10:05:26;;;;;;;11.6;6.4;;;;;;;21.89;59.6416;936.8312;;;;
2023/07/03 10:07:51;;;;;;;12.1;6.4;;;;;;;21.85;59.40137;936.8335;;;;
2023/07/03 10:10:19;;;;;;;12.1;6.1;;;;;;;21.58;60.71289;936.8433;;;;
2023/07/03 10:12:47;;;;;;;9.8;6.5;;;;;;;21.82;61.2959;936.866;;;;
2023/07/03 10:15:18;;;;;;;10.3;6.2;;;;;;;21.84;59.64648;936.8378;;;;
2023/07/03 10:17:44;;;;;;;9.9;5.7;;;;;;;21.52;60.93848;936.8089;;;;
2023/07/03 10:20:11;;;;;;;13.6;6.9;;;;;;;21.74;61.57715;936.8705;;;;
2023/07/03 10:22:39;;;;;;;11.4;6.3;;;;;;;22.11;60.62012;936.882;;;;
2023/07/03 10:25:04;;;;;;;12.5;6.4;;;;;;;22.31;58.04492;936.9055;;;;
2023/07/03 10:27:34;;;;;;;11.7;6.5;;;;;;;22.45;58.05078;936.872;;;;
2023/07/03 10:29:59;;;;;;;11.1;6;;;;;;;22.78;59.29102;936.8295;;;;
2023/07/03 10:32:28;;;;;;;11.1;6.5;;;;;;;22.82;57.33496;936.9013;;;;
2023/07/03 10:34:53;;;;;;;11.4;6.7;;;;;;;22.71;56.98047;936.8925;;;;
2023/07/03 10:37:26;;;;;;;13.2;6.7;;;;;;;22.47;58.27637;936.9306;;;;
2023/07/03 10:39:51;;;;;;;15;6.4;;;;;;;22.09;59.50293;936.9056;;;;
2023/07/03 10:42:19;;;;;;;11.6;6.6;;;;;;;22.4;60.67188;936.9689;;;;
2023/07/03 10:44:48;;;;;;;10.7;6.3;;;;;;;22.61;57.9082;936.9006;;;;
2023/07/03 10:47:13;;;;;;;10.2;6.4;;;;;;;22.52;58.7168;936.9239;;;;
2023/07/03 10:49:39;;;;;;;9.2;5.9;;;;;;;22.17;59.08105;936.9497;;;;
2023/07/03 10:52:05;;;;;;;10.3;6.3;;;;;;;22.43;59.53711;936.972;;;;
2023/07/03 10:54:30;;;;;;;11.5;6;;;;;;;22.46;57.80469;936.9644;;;;
2023/07/03 10:56:55;;;;;;;10.5;6.5;;;;;;;22.3;56.92871;936.9871;;;;
2023/07/03 10:59:21;;;;;;;11.6;6.3;;;;;;;21.99;59.6084;936.9895;;;;
2023/07/03 11:01:48;;;;;;;11.4;6.3;;;;;;;21.69;61.89746;936.946;;;;
2023/07/03 11:04:17;;;;;;;12.5;6.3;;;;;;;21.88;61.85352;936.9461;;;;
2023/07/03 11:06:42;;;;;;;9.9;6.2;;;;;;;22.21;59.64941;936.9174;;;;
2023/07/03 11:09:06;;;;;;;10.9;6.4;;;;;;;22.53;58.00293;936.9363;;;;
2023/07/03 11:11:32;;;;;;;9.4;6.2;;;;;;;22.65;58.13574;936.9655;;;;
2023/07/03 11:13:57;;;;;;;10.1;5.8;;;;;;;22.85;57.17578;936.8906;;;;
2023/07/03 11:16:22;;;;;;;11.3;6;;;;;;;23.34;54.78223;936.9042;;;;
2023/07/03 11:18:51;;;;;;;12;6.4;;;;;;;23.3;56.2334;936.8865;;;;
2023/07/03 11:21:16;;;;;;;13.8;6.5;;;;;;;23.66;53.60938;936.8557;;;;
2023/07/03 11:23:46;;;;;;;12.8;6.2;;;;;;;23.26;55.94629;936.838;;;;
2023/07/03 11:26:12;;;;;;;11.4;6.4;;;;;;;22.62;59.21094;936.8437;;;;
2023/07/03 11:28:37;;;;;;;12.3;6.3;;;;;;;22.42;55.84082;936.8318;;;;
2023/07/03 11:31:02;;;;;;;12.4;6.4;;;;;;;22.56;60.02539;936.7997;;;;
2023/07/03 11:33:31;;;;;;;11.3;5.9;;;;;;;22.9;57.61719;936.7822;;;;
2023/07/03 11:35:56;;;;;;;12.3;6.5;;;;;;;23.23;59.92773;936.8383;;;;
2023/07/03 11:38:27;;;;;;;10.7;6.3;;;;;;;22.83;57.1377;936.7338;;;;
2023/07/03 11:41:02;;;;;;;10.2;6.6;;;;;;;22.8;58.51953;936.853;;;;
2023/07/03 11:43:27;;;;;;;12.4;7;;;;;;;23.26;56.45313;936.8582;;;;
2023/07/03 11:45:53;;;;;;;11.1;6.4;;;;;;;23.82;53.78125;936.8278;;;;
2023/07/03 11:48:18;;;;;;;10.9;6.4;;;;;;;24.2;53.60254;936.7511;;;;
2023/07/03 11:50:43;;;;;;;10.4;6.6;;;;;;;24.7;52.15332;936.7949;;;;
2023/07/03 11:53:10;;;;;;;11.5;6;;;;;;;25;53.02637;936.8159;;;;
2023/07/03 11:55:35;;;;;;;9.6;6;;;;;;;25.27;51.40723;936.7664;;;;
2023/07/03 11:58:00;;;;;;;11.9;6;;;;;;;25.53;51.45996;936.7392;;;;
2023/07/03 12:00:29;;;;;;;14.3;6.5;;;;;;;24.63;53.74805;936.7516;;;;
2023/07/03 12:02:54;;;;;;;11.1;6.2;;;;;;;23.95;55.29199;936.7646;;;;
2023/07/03 12:05:23;;;;;;;11.2;6.1;;;;;;;24.56;51.05371;936.7571;;;;
2023/07/03 12:07:50;;;;;;;16;6.9;;;;;;;25.08;53.39063;936.7487;;;;
2023/07/03 12:10:16;;;;;;;9;6.3;;;;;;;25.05;51.00391;936.6843;;;;
2023/07/03 12:12:49;;;;;;;11.7;6.7;;;;;;;25.5;49.87305;936.7516;;;;
2023/07/03 12:15:15;;;;;;;10.1;6.1;;;;;;;25.94;48.00781;936.7734;;;;
2023/07/03 12:17:47;;;;;;;11.9;6.5;;;;;;;25.48;51.98535;936.7272;;;;
2023/07/03 12:20:12;;;;;;;11.4;6.7;;;;;;;25.98;50.80176;936.6791;;;;
2023/07/03 12:22:39;;;;;;;12.8;6.6;;;;;;;26.14;50.41797;936.6848;;;;
2023/07/03 12:25:04;;;;;;;10.9;6.1;;;;;;;26.03;45.33105;936.6761;;;;
2023/07/03 12:27:29;;;;;;;11.1;6.5;;;;;;;25.91;47.97949;936.6306;;;;
2023/07/03 12:29:54;;;;;;;10.7;6.4;;;;;;;25.69;50.73438;936.6686;;;;
2023/07/03 12:32:30;;;;;;;14.3;6.8;;;;;;;25.57;48.52148;936.5652;;;;
2023/07/03 12:34:55;;;;;;;10.8;6.3;;;;;;;25.08;52.19824;936.5784;;;;
2023/07/03 12:37:21;;;;;;;13.9;6.8;;;;;;;25.19;51.80957;936.5634;;;;
2023/07/03 12:39:51;;;;;;;12.6;6.7;;;;;;;24.38;53.34277;936.6007;;;;
2023/07/03 12:42:16;;;;;;;14.3;7.1;;;;;;;24.03;55.06641;936.5723;;;;
2023/07/03 12:44:41;;;;;;;11.9;6.3;;;;;;;23.86;53.09082;936.4905;;;;
2023/07/03 12:47:11;;;;;;;13.8;7.2;;;;;;;23.4;56.69238;936.5542;;;;
2023/07/03 12:49:36;;;;;;;12.4;7.3;;;;;;;23.5;56.44727;936.5215;;;;
2023/07/03 12:52:03;;;;;;;12.7;6.9;;;;;;;23.25;57.62598;936.4922;;;;
2023/07/03 12:54:26;;;;;;;12.6;7;;;;;;;23.28;58.58203;936.525;;;;
2023/07/03 12:57:00;;;;;;;12.4;7.1;;;;;;;23.32;56.16602;936.5161;;;;
2023/07/03 12:59:24;;;;;;;12;6.8;;;;;;;22.89;57.61523;936.5283;;;;
2023/07/03 13:01:55;;;;;;;13.3;6.7;;;;;;;22.9;59.76563;936.5084;;;;
2023/07/03 13:04:24;;;;;;;11.9;6.6;;;;;;;22.98;54.30176;936.5338;;;;
2023/07/03 13:06:50;;;;;;;16;7.3;;;;;;;23.3;55.81152;936.5167;;;;
2023/07/03 13:09:21;;;;;;;11.3;6.5;;;;;;;23.65;56.03125;936.5369;;;;
2023/07/03 13:11:46;;;;;;;16.7;7.4;;;;;;;23.3;59.27832;936.5492;;;;
2023/07/03 13:14:14;;;;;;;12.1;6.8;;;;;;;23.1;58.88672;936.5747;;;;
2023/07/03 13:16:40;;;;;;;12.9;6.8;;;;;;;22.87;58.09277;936.5075;;;;
2023/07/03 13:19:09;;;;;;;14.2;7.9;;;;;;;22.84;61.97656;936.5027;;;;
2023/07/03 13:21:42;;;;;;;13.9;7.7;;;;;;;23.23;59.06934;936.4799;;;;
2023/07/03 13:24:08;;;;;;;14.4;7.7;;;;;;;23.3;60.31348;936.5165;;;;
2023/07/03 13:26:33;;;;;;;11.2;6.6;;;;;;;23.11;55.75195;936.5;;;;
2023/07/03 13:28:58;;;;;;;12.8;6.5;;;;;;;22.92;58.62793;936.5314;;;;
2023/07/03 13:31:30;;;;;;;12.1;7.9;;;;;;;22.69;60.34766;936.5352;;;;
2023/07/03 13:33:53;;;;;;;13.7;7.5;;;;;;;22.56;60.17773;936.5536;;;;
2023/07/03 13:36:18;;;;;;;12.2;7.2;;;;;;;22.68;58.57324;936.53;;;;
2023/07/03 13:38:49;;;;;;;13.5;7.5;;;;;;;22.68;58.91504;936.5809;;;;
2023/07/03 13:41:14;;;;;;;12.7;7.2;;;;;;;22.72;57.73438;936.6393;;;;
2023/07/03 13:43:45;;;;;;;11.3;7;;;;;;;22.49;59.1123;936.5801;;;;
2023/07/03 13:46:10;;;;;;;12.9;7.2;;;;;;;22.72;57.9209;936.5933;;;;
2023/07/03 13:48:35;;;;;;;15.6;7.1;;;;;;;22.51;59.17285;936.5932;;;;
2023/07/03 13:51:00;;;;;;;15.9;7.6;;;;;;;22.44;61.37012;936.6549;;;;
2023/07/03 13:53:26;;;;;;;13.3;7;;;;;;;22.24;59.41992;936.6519;;;;
2023/07/03 13:55:53;;;;;;;14.7;7.3;;;;;;;22.04;61.31543;936.5567;;;;
2023/07/03 13:58:17;;;;;;;13.2;7.7;;;;;;;22.18;57.75684;936.582;;;;
2023/07/03 14:00:47;;;;;;;13.1;7.3;;;;;;;22.01;58.28613;936.4969;;;;
2023/07/03 14:03:19;;;;;;;12.2;7.1;;;;;;;21.96;59.86133;936.5594;;;;
2023/07/03 14:05:46;;;;;;;10.8;6.9;;;;;;;22.14;58.52539;936.5865;;;;
2023/07/03 14:08:17;;;;;;;11.7;7;;;;;;;22.33;56.16992;936.5383;;;;
2023/07/03 14:10:47;;;;;;;11.8;6.6;;;;;;;22.68;56.1084;936.5259;;;;
2023/07/03 14:13:15;;;;;;;12.9;6.8;;;;;;;22.8;57.25195;936.4869;;;;
2023/07/03 14:15:48;;;;;;;13.8;6.7;;;;;;;22.61;56.46484;936.4656;;;;
2023/07/03 14:18:28;;;;;;;14.3;7.5;;;;;;;22.48;61.29297;936.4036;;;;
2023/07/03 14:21:00;;;;;;;12.8;7.2;;;;;;;22.51;59.05566;936.3787;;;;
2023/07/03 14:23:26;;;;;;;11.6;7.1;;;;;;;22.79;55.55859;936.3906;;;;
2023/07/03 14:26:05;;;;;;;14.3;8.3;;;;;;;22.76;57.93848;936.37;;;;
2023/07/03 14:28:35;;;;;;;14.2;8.4;;;;;;;22.84;61.63672;936.3364;;;;
2023/07/03 14:31:00;;;;;;;17.8;9.2;;;;;;;23;59.17871;936.313;;;;
2023/07/03 14:33:30;;;;;;;12.6;7.1;;;;;;;22.96;57.2959;936.294;;;;
2023/07/03 14:35:55;;;;;;;15.7;8.6;;;;;;;23.41;57.29297;936.2953;;;;
2023/07/03 14:38:28;;;;;;;13.1;7.3;;;;;;;23.26;58.00488;936.2991;;;;
2023/07/03 14:40:54;;;;;;;11.8;7.2;;;;;;;23.6;56.73047;936.3248;;;;
2023/07/03 14:43:19;;;;;;;14.3;7.1;;;;;;;23.32;57.92969;936.2819;;;;
2023/07/03 14:45:53;;;;;;;10.7;7.1;;;;;;;23.12;58.05664;936.2933;;;;
2023/07/03 14:48:21;;;;;;;13.4;7.3;;;;;;;23;56.61816;936.3267;;;;
2023/07/03 14:50:47;;;;;;;12;7.4;;;;;;;22.74;57.43164;936.3041;;;;
2023/07/03 14:53:16;;;;;;;12.6;6.7;;;;;;;22.59;56.91895;936.3066;;;;
2023/07/03 14:55:41;;;;;;;10.8;6.8;;;;;;;22.78;55.10059;936.2828;;;;
2023/07/03 14:58:15;;;;;;;13.1;7.3;;;;;;;23.3;55.1748;936.27;;;;
2023/07/03 15:00:47;;;;;;;13.9;7.1;;;;;;;23.54;57.53516;936.1069;;;;
2023/07/03 15:03:19;;;;;;;9.5;6.5;;;;;;;23.69;55.91699;936.1702;;;;
2023/07/03 15:05:45;;;;;;;12.5;6.9;;;;;;;23.9;54.91016;936.1167;;;;
2023/07/03 15:08:09;;;;;;;15.6;7.8;;;;;;;23.92;51.65137;936.1312;;;;
2023/07/03 15:10:38;;;;;;;11.4;7.3;;;;;;;23.95;51.41895;936.1422;;;;
2023/07/03 15:13:03;;;;;;;12.3;7;;;;;;;23.84;53.33594;936.1457;;;;
2023/07/03 15:15:34;;;;;;;12.3;6.9;;;;;;;23.84;51.85352;936.1365;;;;
2023/07/03 15:18:05;;;;;;;12.6;7.5;;;;;;;24.03;51.09766;936.1046;;;;
2023/07/03 15:20:34;;;;;;;11.3;7.1;;;;;;;24.1;51.95508;936.0687;;;;
2023/07/03 15:22:59;;;;;;;11.5;6.9;;;;;;;24.09;51.3291;936.0734;;;;
2023/07/03 15:25:24;;;;;;;12.7;7.6;;;;;;;23.98;50.95117;936.0563;;;;
2023/07/03 15:27:54;;;;;;;11.4;7;;;;;;;23.96;51.09082;936.0497;;;;
2023/07/03 15:30:21;;;;;;;12.6;7;;;;;;;23.94;51.41699;936.033;;;;
2023/07/03 15:32:50;;;;;;;10.8;7;;;;;;;23.55;52.9834;936.027;;;;
2023/07/03 15:35:19;;;;;;;10.9;6.7;;;;;;;23.41;52.70898;935.9612;;;;